Time;durP1;ratioP1;P1;durP2;ratioP2;P2;SDS_P1;SDS_P2;PMS_P1;PMS_P2;Temp;Humidity;BMP_temperature;BMP_pressure;BME280_temperature;BME280_humidity;BME280_pressure;Samples;Min_cycle;Max_cycle;Signal;HPM_P1;HPM_P2
2023/01/29 00:01:33;;;;;;;9.45;7.32;;;2.30;99.90;;;;;;5070016;28;21789;-79
2023/01/29 00:03:59;;;;;;;7.57;6.78;;;;;;;;;;5057045;28;20402;-79
2023/01/29 00:06:25;;;;;;;8.60;7.57;;;2.40;99.90;;;;;;5054592;28;20397;-78
2023/01/29 00:08:51;;;;;;;9.63;7.47;;;2.20;99.90;;;;;;5054444;28;21245;-79
2023/01/29 00:11:16;;;;;;;10.60;7.97;;;2.20;99.90;;;;;;5056589;28;20473;-79
2023/01/29 00:13:42;;;;;;;8.70;7.60;;;2.10;99.90;;;;;;5053700;28;20409;-79
2023/01/29 00:16:09;;;;;;;10.85;7.80;;;2.00;99.90;;;;;;5052324;28;20433;-79
2023/01/29 00:18:39;;;;;;;9.90;7.45;;;2.00;99.90;;;;;;5069708;28;20401;-78
2023/01/29 00:21:23;;;;;;;9.38;7.90;;;1.80;99.90;;;;;;5056856;28;20463;-79
2023/01/29 00:23:50;;;;;;;10.40;8.40;;;1.90;99.90;;;;;;5057941;28;20511;-79
2023/01/29 00:26:16;;;;;;;10.52;8.30;;;1.80;99.90;;;;;;5054096;28;20474;-78
2023/01/29 00:28:41;;;;;;;9.38;8.23;;;1.80;99.90;;;;;;5063925;28;20396;-78
2023/01/29 00:31:12;;;;;;;9.07;8.00;;;1.80;99.90;;;;;;5092307;28;20481;-79
2023/01/29 00:33:38;;;;;;;9.87;8.67;;;1.60;99.90;;;;;;5074395;28;20493;-78
2023/01/29 00:36:09;;;;;;;8.95;8.05;;;1.90;99.90;;;;;;5092554;28;20370;-78
2023/01/29 00:38:36;;;;;;;9.80;8.70;;;2.00;99.90;;;;;;5092642;28;20378;-79
2023/01/29 00:46:38;;;;;;;10.23;8.52;;;2.00;99.90;;;;;;5077159;28;20502;-79
2023/01/29 00:49:05;;;;;;;10.50;8.60;;;2.10;99.90;;;;;;5067442;23;20439;-78
2023/01/29 00:51:30;;;;;;;10.65;9.05;;;2.10;99.90;;;;;;5049397;28;20969;-78
2023/01/29 00:53:57;;;;;;;9.30;7.97;;;2.00;99.90;;;;;;5050944;28;20495;-78
2023/01/29 00:56:27;;;;;;;10.25;7.88;;;2.00;99.90;;;;;;5045937;28;20456;-77
2023/01/29 00:58:54;;;;;;;8.88;7.95;;;1.90;99.90;;;;;;5049931;28;20732;-78
2023/01/29 01:03:04;;;;;;;9.38;8.05;;;2.00;99.90;;;;;;5051918;28;20389;-78
2023/01/29 01:04:07;;;;;;;9.93;8.10;;;2.10;99.90;;;;;;5051399;28;20421;-78
2023/01/29 01:06:33;;;;;;;10.20;8.80;;;2.00;99.90;;;;;;5050198;28;20382;-77
2023/01/29 01:11:42;;;;;;;10.07;8.60;;;1.90;99.90;;;;;;5051448;28;20384;-78
2023/01/29 01:14:08;;;;;;;10.77;8.18;;;2.00;99.90;;;;;;5050615;28;20401;-78
2023/01/29 01:16:33;;;;;;;10.00;7.82;;;2.10;99.90;;;;;;5050681;28;20390;-77
2023/01/29 01:18:59;;;;;;;9.95;8.23;;;1.90;99.90;;;;;;5051139;28;20386;-77
2023/01/29 01:21:24;;;;;;;9.30;8.30;;;1.90;99.90;;;;;;5051501;28;20389;-77
2023/01/29 01:23:51;;;;;;;9.40;8.47;;;1.90;99.90;;;;;;5050649;28;20468;-78
2023/01/29 01:26:17;;;;;;;10.48;8.73;;;1.80;99.90;;;;;;5051824;28;20393;-78
2023/01/29 01:28:43;;;;;;;9.35;8.23;;;1.70;99.90;;;;;;5051179;28;20412;-78
2023/01/29 01:31:11;;;;;;;10.10;7.45;;;1.90;99.90;;;;;;5049925;28;20392;-78
2023/01/29 01:33:36;;;;;;;9.03;7.50;;;1.90;99.90;;;;;;5051383;28;20507;-78
2023/01/29 01:36:03;;;;;;;9.77;7.80;;;1.60;99.90;;;;;;5051302;28;20472;-78
2023/01/29 01:38:29;;;;;;;9.82;7.50;;;2.00;99.90;;;;;;5050272;28;20382;-77
2023/01/29 01:40:54;;;;;;;9.55;7.47;;;2.00;99.90;;;;;;5050681;28;20397;-78
2023/01/29 01:43:20;;;;;;;10.38;8.73;;;2.00;99.90;;;;;;5050059;28;20390;-77
2023/01/29 01:45:46;;;;;;;11.38;8.30;;;1.90;99.90;;;;;;5050816;28;20392;-78
2023/01/29 01:48:18;;;;;;;8.23;7.30;;;2.10;99.90;;;;;;5048997;28;20417;-78
2023/01/29 01:50:49;;;;;;;8.98;8.05;;;1.90;99.90;;;;;;5049828;28;20411;-78
2023/01/29 01:53:22;;;;;;;10.02;8.00;;;2.10;99.90;;;;;;5048250;28;20402;-78
2023/01/29 01:55:54;;;;;;;9.38;8.13;;;2.20;99.90;;;;;;5050117;28;20794;-78
2023/01/29 01:58:28;;;;;;;10.80;9.20;;;2.20;99.90;;;;;;5050319;28;20412;-77
2023/01/29 02:00:54;;;;;;;9.77;8.60;;;2.20;99.90;;;;;;5049023;28;20394;-78
2023/01/29 02:11:41;;;;;;;10.50;9.02;;;1.70;99.90;;;;;;5051226;28;20851;-78
2023/01/29 02:14:07;;;;;;;11.30;9.70;;;1.70;99.90;;;;;;5048838;28;20477;-77
2023/01/29 02:16:34;;;;;;;10.77;8.90;;;1.60;99.90;;;;;;5047017;28;20467;-78
2023/01/29 02:19:00;;;;;;;11.80;9.38;;;1.50;99.90;;;;;;5048337;28;20980;-78
2023/01/29 02:21:43;;;;;;;10.30;8.75;;;1.60;99.90;;;;;;5049939;28;20409;-78
2023/01/29 02:24:12;;;;;;;10.82;8.48;;;1.50;99.90;;;;;;5049834;28;20430;-78
2023/01/29 02:27:14;;;;;;;9.65;8.75;;;1.60;99.90;;;;;;5047754;28;20458;-78
2023/01/29 02:29:47;;;;;;;12.38;9.20;;;1.50;99.90;;;;;;5048259;28;20407;-78
2023/01/29 02:33:00;;;;;;;9.75;8.60;;;1.60;99.90;;;;;;5049958;28;20463;-79
2023/01/29 02:35:33;;;;;;;10.68;8.73;;;1.50;99.90;;;;;;5032372;28;20769;-78
2023/01/29 02:38:44;;;;;;;10.35;8.68;;;1.30;99.90;;;;;;5049369;28;20429;-79
2023/01/29 02:41:21;;;;;;;11.95;9.98;;;1.50;99.90;;;;;;5049792;28;20427;-78
2023/01/29 02:43:57;;;;;;;12.48;9.70;;;1.20;99.90;;;;;;5049528;28;20440;-79
2023/01/29 02:46:34;;;;;;;10.75;9.13;;;1.20;99.90;;;;;;5050183;28;20472;-79
2023/01/29 02:49:30;;;;;;;11.40;10.20;;;1.20;99.90;;;;;;5050683;28;20412;-79
2023/01/29 02:52:01;;;;;;;11.45;10.00;;;1.10;99.90;;;;;;5047333;28;20444;-78
2023/01/29 02:54:52;;;;;;;10.80;9.70;;;0.80;99.90;;;;;;5035980;28;20448;-78
2023/01/29 02:57:23;;;;;;;10.82;9.45;;;1.00;99.90;;;;;;5036106;28;20386;-78
2023/01/29 02:59:56;;;;;;;11.15;9.45;;;1.00;99.90;;;;;;5048055;28;20476;-79
2023/01/29 03:02:31;;;;;;;9.95;8.50;;;0.90;99.90;;;;;;5050032;28;20390;-78
2023/01/29 03:05:06;;;;;;;11.10;8.60;;;0.90;99.90;;;;;;5049238;28;20443;-79
2023/01/29 03:07:41;;;;;;;11.18;8.52;;;0.90;99.90;;;;;;5030719;28;20426;-79
2023/01/29 03:10:22;;;;;;;10.45;9.27;;;1.10;99.90;;;;;;5029175;28;20428;-78
2023/01/29 03:12:54;;;;;;;14.20;10.77;;;0.60;99.90;;;;;;5032426;28;20494;-78
2023/01/29 03:15:27;;;;;;;12.90;10.05;;;0.50;99.90;;;;;;5046500;28;20434;-79
2023/01/29 03:18:03;;;;;;;13.10;10.20;;;0.50;99.90;;;;;;5050874;28;20437;-78
2023/01/29 03:20:34;;;;;;;11.65;9.40;;;0.60;99.90;;;;;;5052150;28;20845;-78
2023/01/29 03:23:13;;;;;;;11.82;9.25;;;0.60;99.90;;;;;;5053678;28;20396;-78
2023/01/29 03:34:06;;;;;;;12.95;10.05;;;0.20;99.90;;;;;;5054794;28;20487;-78
2023/01/29 03:36:44;;;;;;;10.82;9.40;;;0.20;99.90;;;;;;5052164;28;20401;-78
2023/01/29 03:39:12;;;;;;;12.05;10.40;;;0.20;99.90;;;;;;5051853;28;20513;-78
2023/01/29 03:41:53;;;;;;;11.82;10.63;;;0.20;99.90;;;;;;5052474;28;20395;-78
2023/01/29 03:44:43;;;;;;;11.85;10.00;;;0.30;99.90;;;;;;5054835;28;20413;-78
2023/01/29 03:47:31;;;;;;;13.07;10.80;;;0.30;99.90;;;;;;5053495;28;20473;-78
2023/01/29 03:50:05;;;;;;;13.52;10.80;;;0.50;99.90;;;;;;5048601;28;20408;-78
2023/01/29 03:53:03;;;;;;;12.38;10.73;;;0.00;99.90;;;;;;5053309;28;20469;-77
2023/01/29 03:55:54;;;;;;;12.70;10.83;;;0.30;99.90;;;;;;5043828;28;20397;-78
2023/01/29 03:58:23;;;;;;;13.10;11.43;;;0.10;99.90;;;;;;5056713;28;20416;-77
2023/01/29 04:01:03;;;;;;;13.85;11.00;;;0.20;99.90;;;;;;5055519;28;20393;-78
2023/01/29 04:03:36;;;;;;;13.50;11.00;;;0.20;99.90;;;;;;5033812;28;20490;-78
2023/01/29 04:06:08;;;;;;;11.50;10.30;;;0.50;99.90;;;;;;5050116;28;20394;-77
2023/01/29 04:08:55;;;;;;;14.60;11.02;;;0.30;99.90;;;;;;5052003;28;20519;-77
2023/01/29 04:11:22;;;;;;;12.55;10.20;;;0.40;99.90;;;;;;5052470;28;20393;-78
2023/01/29 04:13:48;;;;;;;12.00;10.20;;;0.40;99.90;;;;;;5054510;28;20543;-77
2023/01/29 04:16:18;;;;;;;11.50;9.50;;;0.40;99.90;;;;;;5056155;28;20444;-77
2023/01/29 04:18:46;;;;;;;11.80;10.40;;;0.30;99.90;;;;;;5053789;28;20389;-77
2023/01/29 04:21:13;;;;;;;12.23;10.43;;;0.50;99.90;;;;;;5054912;28;20386;-78
2023/01/29 04:23:39;;;;;;;11.95;9.90;;;0.40;99.90;;;;;;5053692;28;20393;-78
2023/01/29 04:26:34;;;;;;;12.02;10.13;;;0.30;99.90;;;;;;5052877;28;20459;-78
2023/01/29 04:29:09;;;;;;;12.40;10.30;;;0.40;99.90;;;;;;5053767;28;20384;-78
2023/01/29 04:31:51;;;;;;;14.40;10.20;;;0.30;99.90;;;;;;5053704;28;20792;-79
2023/01/29 04:34:27;;;;;;;12.52;10.63;;;0.40;99.90;;;;;;5053037;28;20488;-77
2023/01/29 04:37:10;;;;;;;12.83;10.20;;;0.40;99.90;;;;;;5051970;28;20400;-78
2023/01/29 04:39:57;;;;;;;12.27;10.60;;;0.50;99.90;;;;;;5047262;28;20389;-78
2023/01/29 04:42:35;;;;;;;12.15;10.70;;;0.40;99.90;;;;;;5051753;28;20389;-78
2023/01/29 04:45:18;;;;;;;12.67;10.33;;;0.00;99.90;;;;;;5052068;28;20405;-78
2023/01/29 04:47:50;;;;;;;11.38;9.95;;;0.40;99.90;;;;;;5052247;28;20504;-78
2023/01/29 04:50:24;;;;;;;13.02;10.40;;;0.60;99.90;;;;;;5051562;28;20397;-78
2023/01/29 04:53:08;;;;;;;12.35;10.30;;;0.30;99.90;;;;;;5051228;28;20551;-78
2023/01/29 04:55:45;;;;;;;13.25;10.57;;;0.40;99.90;;;;;;5052145;28;20401;-78
2023/01/29 04:58:36;;;;;;;12.82;10.40;;;0.50;99.90;;;;;;5053121;28;20427;-78
2023/01/29 05:01:07;;;;;;;12.00;9.68;;;0.50;99.90;;;;;;5052939;28;20468;-78
2023/01/29 05:03:35;;;;;;;12.93;10.27;;;0.50;99.90;;;;;;5053315;28;20389;-78
2023/01/29 05:06:01;;;;;;;12.02;9.95;;;0.40;99.90;;;;;;5051276;28;20429;-78
2023/01/29 05:08:29;;;;;;;12.13;10.13;;;0.40;99.90;;;;;;5053070;28;20484;-78
2023/01/29 05:10:59;;;;;;;13.05;10.35;;;0.50;99.90;;;;;;5055380;28;20393;-77
2023/01/29 05:13:27;;;;;;;13.57;10.43;;;0.40;99.90;;;;;;5056590;28;20921;-77
2023/01/29 05:15:59;;;;;;;13.33;10.77;;;0.50;99.90;;;;;;5055025;28;20403;-78
2023/01/29 05:18:24;;;;;;;11.45;10.25;;;0.50;99.90;;;;;;5051519;28;20412;-78
2023/01/29 05:20:51;;;;;;;11.57;9.75;;;0.80;99.90;;;;;;5052488;28;20388;-78
2023/01/29 05:23:22;;;;;;;12.85;10.35;;;0.20;99.90;;;;;;5052769;28;20386;-78
2023/01/29 05:25:49;;;;;;;12.30;10.30;;;0.40;99.90;;;;;;5052119;28;20447;-78
2023/01/29 05:28:17;;;;;;;12.27;10.98;;;0.30;99.90;;;;;;5051426;28;20394;-78
2023/01/29 05:30:48;;;;;;;12.57;10.73;;;0.30;99.90;;;;;;5052513;28;20459;-78
2023/01/29 05:33:15;;;;;;;13.27;11.70;;;0.30;99.90;;;;;;5052445;28;20976;-78
2023/01/29 05:35:41;;;;;;;12.02;10.70;;;0.30;99.90;;;;;;5051740;28;20956;-78
2023/01/29 05:38:07;;;;;;;12.57;10.40;;;2.20;99.90;;;;;;5053031;28;20468;-78
2023/01/29 05:40:33;;;;;;;11.05;9.65;;;0.40;99.90;;;;;;5049982;28;20473;-78
2023/01/29 05:42:59;;;;;;;11.88;9.98;;;0.60;99.90;;;;;;5051827;28;20407;-78
2023/01/29 05:45:25;;;;;;;12.60;10.90;;;0.70;99.90;;;;;;5051630;28;20891;-78
2023/01/29 05:47:54;;;;;;;13.13;10.63;;;0.60;99.90;;;;;;5052504;28;20894;-78
2023/01/29 05:50:20;;;;;;;11.43;10.23;;;0.40;99.90;;;;;;5051331;28;20435;-78
2023/01/29 05:52:45;;;;;;;12.20;10.10;;;0.40;99.90;;;;;;5051779;28;20974;-78
2023/01/29 05:55:11;;;;;;;12.43;10.80;;;0.20;99.90;;;;;;5050198;28;20476;-78
2023/01/29 05:57:38;;;;;;;12.60;10.40;;;0.40;99.90;;;;;;5049302;28;20385;-78
2023/01/29 06:00:05;;;;;;;12.90;11.32;;;0.30;99.90;;;;;;5050765;28;20386;-78
2023/01/29 06:02:30;;;;;;;13.55;11.35;;;0.40;99.90;;;;;;5051693;28;20378;-79
2023/01/29 06:04:56;;;;;;;12.55;10.55;;;0.00;99.90;;;;;;5049923;28;20843;-78
2023/01/29 06:07:22;;;;;;;13.00;10.68;;;0.20;99.90;;;;;;5050818;28;20409;-79
2023/01/29 06:09:47;;;;;;;12.98;10.98;;;0.30;99.90;;;;;;5053246;28;20369;-79
2023/01/29 06:12:13;;;;;;;12.60;10.57;;;0.00;99.90;;;;;;5052613;28;20384;-79
2023/01/29 06:14:39;;;;;;;11.80;9.90;;;0.30;99.90;;;;;;5052681;28;20406;-78
2023/01/29 06:17:04;;;;;;;13.03;10.63;;;0.20;99.90;;;;;;5050186;28;20425;-79
2023/01/29 06:19:30;;;;;;;12.77;11.10;;;0.00;99.90;;;;;;5050885;28;20395;-79
2023/01/29 06:21:55;;;;;;;11.83;10.43;;;0.10;99.90;;;;;;5051127;28;20388;-78
2023/01/29 06:24:21;;;;;;;13.10;10.87;;;0.10;99.90;;;;;;5053193;28;20933;-79
2023/01/29 06:26:47;;;;;;;14.47;11.37;;;0.00;99.90;;;;;;5051622;28;20385;-79
2023/01/29 06:29:12;;;;;;;12.53;10.50;;;-0.10;99.90;;;;;;5049467;28;20927;-79
2023/01/29 06:31:38;;;;;;;12.90;10.73;;;0.10;99.90;;;;;;5050467;28;20975;-79
2023/01/29 06:34:03;;;;;;;13.60;11.30;;;-0.20;99.90;;;;;;5051455;28;20425;-79
2023/01/29 06:36:29;;;;;;;15.38;11.82;;;-0.30;99.90;;;;;;5049557;28;20748;-78
2023/01/29 06:38:55;;;;;;;12.75;10.50;;;-0.40;99.90;;;;;;5051058;28;20882;-78
2023/01/29 06:41:24;;;;;;;14.00;11.77;;;-0.50;99.90;;;;;;5052761;28;20394;-78
2023/01/29 06:43:49;;;;;;;12.50;10.80;;;0.20;99.90;;;;;;5057330;28;20393;-78
2023/01/29 06:46:15;;;;;;;13.40;10.10;;;-0.50;99.90;;;;;;5057540;28;20381;-78
2023/01/29 06:48:41;;;;;;;14.38;12.13;;;-0.30;99.90;;;;;;5054307;28;20381;-79
2023/01/29 06:51:08;;;;;;;14.00;11.13;;;-0.20;99.90;;;;;;5051639;28;20405;-82
2023/01/29 06:53:34;;;;;;;12.40;10.82;;;-0.20;99.90;;;;;;5052915;28;20405;-80
2023/01/29 06:56:00;;;;;;;14.43;10.90;;;-0.30;99.90;;;;;;5054792;28;20448;-80
2023/01/29 06:58:26;;;;;;;12.73;10.60;;;-0.20;99.90;;;;;;5059079;28;20482;-81
2023/01/29 07:00:52;;;;;;;11.60;9.70;;;-0.30;99.90;;;;;;5057986;28;20424;-80
2023/01/29 07:03:17;;;;;;;12.00;9.90;;;-0.60;99.90;;;;;;5056425;28;20389;-81
2023/01/29 07:05:49;;;;;;;12.70;10.30;;;-0.40;99.90;;;;;;5057432;28;20407;-80
2023/01/29 07:08:15;;;;;;;14.27;11.00;;;-0.50;99.90;;;;;;5057865;28;20389;-79
2023/01/29 07:10:40;;;;;;;12.75;9.80;;;-0.50;99.90;;;;;;5055545;28;20439;-80
2023/01/29 07:13:06;;;;;;;11.13;8.60;;;-0.30;99.90;;;;;;5065174;28;20409;-79
2023/01/29 07:15:31;;;;;;;9.20;7.38;;;-0.70;99.90;;;;;;5059192;28;20397;-81
2023/01/29 07:18:10;;;;;;;8.00;6.90;;;-0.30;99.90;;;;;;5060806;28;20413;-79
2023/01/29 07:20:37;;;;;;;8.25;6.10;;;-0.50;99.90;;;;;;5055044;28;20400;-80
2023/01/29 07:23:03;;;;;;;9.27;6.32;;;-0.40;99.90;;;;;;5055451;28;20476;-79
2023/01/29 07:25:29;;;;;;;8.50;6.75;;;-0.40;99.90;;;;;;5055120;28;20474;-80
2023/01/29 07:27:55;;;;;;;9.30;7.20;;;-0.40;99.90;;;;;;5053457;28;20417;-79
2023/01/29 07:30:21;;;;;;;8.02;6.97;;;-0.20;99.90;;;;;;5057668;28;20945;-79
2023/01/29 07:32:46;;;;;;;8.60;7.43;;;-0.30;99.90;;;;;;5055882;28;20408;-79
2023/01/29 07:35:12;;;;;;;8.70;7.13;;;-0.20;99.90;;;;;;5056718;28;20451;-79
2023/01/29 07:37:37;;;;;;;9.57;7.53;;;-0.20;99.90;;;;;;5056619;28;20389;-80
2023/01/29 07:40:09;;;;;;;10.10;7.83;;;-0.10;99.90;;;;;;5051443;28;20488;-79
2023/01/29 07:42:35;;;;;;;11.27;9.13;;;0.00;99.90;;;;;;5051714;28;20392;-80
2023/01/29 07:45:00;;;;;;;11.70;8.90;;;-0.10;99.90;;;;;;5050744;28;20753;-79
2023/01/29 07:47:26;;;;;;;11.90;9.23;;;0.00;99.90;;;;;;5050540;28;20456;-80
2023/01/29 07:49:51;;;;;;;12.67;9.30;;;0.00;99.90;;;;;;5050600;28;20402;-80
2023/01/29 07:52:17;;;;;;;10.40;9.30;;;-0.20;99.90;;;;;;5056858;28;20389;-80
2023/01/29 07:54:43;;;;;;;12.85;9.93;;;0.00;99.90;;;;;;5067157;28;20454;-79
2023/01/29 07:57:08;;;;;;;10.82;9.73;;;0.00;99.90;;;;;;5065493;28;20427;-81
2023/01/29 07:59:34;;;;;;;14.00;10.63;;;-0.10;99.90;;;;;;5064786;28;20551;-81
2023/01/29 08:01:59;;;;;;;16.60;11.33;;;0.30;99.90;;;;;;5054853;28;20435;-81
2023/01/29 08:04:25;;;;;;;11.88;9.55;;;0.10;99.90;;;;;;5053607;28;20401;-81
2023/01/29 08:06:51;;;;;;;13.68;10.27;;;0.50;99.90;;;;;;5054409;28;20439;-82
2023/01/29 08:09:16;;;;;;;12.37;10.33;;;0.40;99.90;;;;;;5056867;28;20485;-81
2023/01/29 08:11:42;;;;;;;12.10;9.90;;;0.20;99.90;;;;;;5056870;28;20405;-80
2023/01/29 08:14:08;;;;;;;12.80;10.30;;;0.90;99.90;;;;;;5055324;28;20444;-79
2023/01/29 08:16:34;;;;;;;12.98;9.50;;;0.50;99.90;;;;;;5059623;28;20786;-82
2023/01/29 08:19:01;;;;;;;11.02;9.10;;;0.20;99.90;;;;;;5059859;28;20406;-83
2023/01/29 08:21:26;;;;;;;12.57;9.90;;;0.30;99.90;;;;;;5066013;28;20396;-83
2023/01/29 08:23:52;;;;;;;10.50;8.82;;;0.30;99.90;;;;;;5058989;28;20394;-83
2023/01/29 08:26:18;;;;;;;11.73;9.20;;;0.40;99.90;;;;;;5059677;28;20390;-82
2023/01/29 08:28:43;;;;;;;11.13;9.35;;;0.00;99.90;;;;;;5057645;28;20750;-83
2023/01/29 08:31:17;;;;;;;11.55;9.55;;;0.30;99.90;;;;;;5058452;28;20389;-84
2023/01/29 08:33:42;;;;;;;11.55;9.40;;;0.60;99.90;;;;;;5055089;28;20449;-83
2023/01/29 08:36:08;;;;;;;9.90;8.50;;;0.70;99.90;;;;;;5057058;28;20381;-83
2023/01/29 08:38:34;;;;;;;12.30;9.40;;;1.10;99.90;;;;;;5057803;28;20390;-83
2023/01/29 08:40:59;;;;;;;11.77;9.40;;;0.70;99.90;;;;;;5058226;28;20447;-83
2023/01/29 08:43:25;;;;;;;11.33;9.40;;;1.00;99.90;;;;;;5058099;28;20384;-83
2023/01/29 08:45:51;;;;;;;12.60;9.70;;;0.50;99.90;;;;;;5056351;28;20416;-83
2023/01/29 08:48:16;;;;;;;12.00;9.30;;;0.20;99.90;;;;;;5063703;28;20377;-83
2023/01/29 08:50:42;;;;;;;11.53;9.37;;;0.40;99.90;;;;;;5071716;28;20443;-84
2023/01/29 08:53:08;;;;;;;9.90;8.90;;;0.50;99.90;;;;;;5055669;28;20480;-84
2023/01/29 08:55:38;;;;;;;11.35;9.30;;;0.50;99.90;;;;;;5064197;28;20409;-82
2023/01/29 08:58:05;;;;;;;11.70;9.50;;;0.70;99.90;;;;;;5075352;28;20381;-83
2023/01/29 09:00:32;;;;;;;11.35;9.23;;;0.80;99.90;;;;;;5074919;28;20401;-84
2023/01/29 09:02:58;;;;;;;12.98;10.48;;;1.00;99.90;;;;;;5071120;28;20408;-83
2023/01/29 09:05:24;;;;;;;12.23;10.30;;;0.90;99.90;;;;;;5059953;28;20392;-84
2023/01/29 09:07:50;;;;;;;13.57;10.60;;;0.80;99.90;;;;;;5055289;28;21553;-84
2023/01/29 09:10:16;;;;;;;13.65;10.25;;;0.60;99.90;;;;;;5058622;28;20433;-83
2023/01/29 09:12:41;;;;;;;11.85;9.50;;;0.60;99.90;;;;;;5053457;28;20411;-83
2023/01/29 09:15:08;;;;;;;11.20;9.80;;;1.00;99.90;;;;;;5060773;28;20389;-83
2023/01/29 09:17:33;;;;;;;14.15;10.43;;;1.10;99.90;;;;;;5052908;28;20389;-83
2023/01/29 09:19:59;;;;;;;11.43;9.75;;;1.10;99.90;;;;;;5056125;28;20408;-84
2023/01/29 09:22:24;;;;;;;11.68;10.48;;;0.70;99.90;;;;;;5058137;28;20473;-84
2023/01/29 09:24:50;;;;;;;11.10;9.85;;;0.70;99.90;;;;;;5057259;28;20504;-83
2023/01/29 09:27:15;;;;;;;11.38;9.98;;;1.30;99.90;;;;;;5058672;28;20385;-84
2023/01/29 09:29:41;;;;;;;12.48;10.02;;;1.20;99.90;;;;;;5054644;28;20397;-84
2023/01/29 09:32:06;;;;;;;11.20;9.87;;;0.90;99.90;;;;;;5051933;28;20395;-84
2023/01/29 09:34:32;;;;;;;12.50;10.40;;;1.10;99.90;;;;;;5052252;28;20412;-84
2023/01/29 09:36:58;;;;;;;11.63;9.77;;;1.40;99.90;;;;;;5048815;28;20748;-83
2023/01/29 09:39:23;;;;;;;12.35;10.13;;;1.60;99.90;;;;;;5055078;28;20425;-82
2023/01/29 09:42:10;;;;;;;12.40;10.40;;;1.50;99.90;;;;;;5055417;28;20420;-83
2023/01/29 09:44:53;;;;;;;11.93;10.10;;;0.90;99.90;;;;;;5056638;28;20393;-83
2023/01/29 09:47:22;;;;;;;11.13;9.98;;;1.20;99.90;;;;;;5056573;28;20424;-83
2023/01/29 09:50:12;;;;;;;11.18;9.60;;;1.50;99.90;;;;;;5056924;28;20825;-83
2023/01/29 09:52:42;;;;;;;10.10;9.00;;;1.70;99.90;;;;;;5056488;28;20382;-83
2023/01/29 09:55:25;;;;;;;11.32;8.95;;;1.60;99.90;;;;;;5056527;28;20421;-83
2023/01/29 09:57:59;;;;;;;10.45;9.30;;;3.70;99.90;;;;;;5054132;28;20455;-82
2023/01/29 10:00:44;;;;;;;11.15;9.10;;;1.70;99.90;;;;;;5053055;28;20385;-82
2023/01/29 10:03:12;;;;;;;11.23;9.70;;;1.60;99.90;;;;;;5056330;28;20472;-83
2023/01/29 10:05:49;;;;;;;10.75;9.40;;;1.70;99.90;;;;;;5053501;28;20968;-83
2023/01/29 10:08:52;;;;;;;10.20;8.93;;;1.60;99.90;;;;;;5052047;28;20405;-83
2023/01/29 10:11:37;;;;;;;11.52;9.80;;;1.60;99.90;;;;;;5055209;28;20397;-83
2023/01/29 10:14:24;;;;;;;11.77;9.80;;;1.60;99.90;;;;;;5055332;28;20409;-83
2023/01/29 10:17:01;;;;;;;9.27;8.10;;;1.40;99.90;;;;;;5055737;28;20407;-83
2023/01/29 10:19:38;;;;;;;11.32;8.82;;;1.30;99.90;;;;;;5055288;28;20901;-83
2023/01/29 10:22:15;;;;;;;10.80;9.70;;;1.30;99.90;;;;;;5054905;28;20484;-82
2023/01/29 10:24:53;;;;;;;13.18;10.75;;;1.40;99.90;;;;;;5054373;28;20400;-82
2023/01/29 10:27:18;;;;;;;13.18;9.70;;;1.40;99.90;;;;;;5055634;28;20393;-83
2023/01/29 10:29:47;;;;;;;12.65;10.20;;;1.70;99.90;;;;;;5053822;28;20933;-83
2023/01/29 10:32:16;;;;;;;8.93;8.00;;;1.80;99.90;;;;;;5052087;28;20431;-82
2023/01/29 10:34:48;;;;;;;13.60;9.40;;;1.70;99.90;;;;;;5062638;28;20412;-82
2023/01/29 10:37:23;;;;;;;10.40;9.30;;;1.50;99.90;;;;;;5064585;28;20445;-82
2023/01/29 10:39:49;;;;;;;10.73;9.10;;;1.70;99.90;;;;;;5056183;28;20397;-82
2023/01/29 10:42:25;;;;;;;10.13;9.02;;;1.90;99.90;;;;;;5057387;28;20452;-83
2023/01/29 10:45:02;;;;;;;9.45;8.30;;;2.40;99.90;;;;;;5057541;28;20390;-82
2023/01/29 10:48:06;;;;;;;10.18;8.60;;;2.70;99.90;;;;;;5055932;28;20841;-83
2023/01/29 10:50:51;;;;;;;8.65;7.28;;;2.70;99.90;;;;;;5055747;28;20404;-83
2023/01/29 10:53:36;;;;;;;9.35;8.35;;;3.00;99.90;;;;;;5055272;28;20401;-83
2023/01/29 10:56:13;;;;;;;7.60;6.53;;;3.10;99.90;;;;;;5054168;28;21100;-84
2023/01/29 10:58:45;;;;;;;7.57;5.65;;;3.20;92.90;;;;;;5050015;28;20950;-78
2023/01/29 11:01:11;;;;;;;6.07;5.40;;;2.90;84.80;;;;;;5050003;28;20393;-78
2023/01/29 11:03:37;;;;;;;8.73;6.90;;;2.80;92.30;;;;;;5047173;28;20429;-78
2023/01/29 11:06:18;;;;;;;7.22;4.68;;;3.40;94.00;;;;;;5045388;28;20476;-78
2023/01/29 11:09:16;;;;;;;7.30;5.25;;;3.50;79.30;;;;;;5048643;28;20389;-78
2023/01/29 11:12:05;;;;;;;4.97;4.20;;;3.60;83.00;;;;;;5040917;28;20433;-78
2023/01/29 11:14:42;;;;;;;4.32;3.65;;;4.00;75.20;;;;;;5051967;28;20413;-78
2023/01/29 11:17:15;;;;;;;4.78;4.28;;;3.40;69.90;;;;;;5059270;28;20385;-82
2023/01/29 11:19:44;;;;;;;6.00;5.40;;;3.50;76.00;;;;;;5067386;28;20468;-81
2023/01/29 11:22:15;;;;;;;6.88;5.75;;;3.50;78.00;;;;;;5067886;28;20381;-80
2023/01/29 11:24:41;;;;;;;6.80;5.60;;;3.00;79.40;;;;;;5055762;28;20401;-83
2023/01/29 11:27:22;;;;;;;6.05;5.47;;;3.60;81.80;;;;;;5054464;28;20400;-81
2023/01/29 11:29:49;;;;;;;5.40;4.90;;;4.00;75.90;;;;;;5050437;28;20400;-82
2023/01/29 11:32:20;;;;;;;6.00;4.78;;;4.00;70.80;;;;;;5050223;28;20469;-80
2023/01/29 11:35:20;;;;;;;5.90;5.30;;;4.10;74.20;;;;;;5051455;28;20401;-80
2023/01/29 11:37:48;;;;;;;6.50;5.90;;;4.30;70.60;;;;;;5051806;28;20763;-81
2023/01/29 11:40:17;;;;;;;6.60;5.88;;;4.20;69.70;;;;;;5048594;28;20790;-79
2023/01/29 11:42:43;;;;;;;6.30;5.70;;;4.50;67.70;;;;;;5057967;28;20408;-82
2023/01/29 11:45:28;;;;;;;6.70;5.80;;;4.30;69.30;;;;;;5049605;28;20440;-83
2023/01/29 11:47:55;;;;;;;6.80;5.50;;;4.10;73.00;;;;;;5051291;28;21807;-80
2023/01/29 11:50:27;;;;;;;6.45;5.35;;;3.50;71.70;;;;;;5061078;28;20404;-83
2023/01/29 11:52:54;;;;;;;6.97;5.60;;;3.80;73.50;;;;;;5054592;28;20479;-81
2023/01/29 11:55:29;;;;;;;5.53;4.93;;;4.20;67.90;;;;;;5054546;28;20476;-83
2023/01/29 11:57:57;;;;;;;5.95;5.35;;;4.30;67.00;;;;;;5054686;28;20389;-80
2023/01/29 12:00:26;;;;;;;5.38;4.85;;;4.50;67.50;;;;;;5053318;28;20394;-83
2023/01/29 12:03:19;;;;;;;6.43;5.72;;;4.60;62.90;;;;;;5056214;28;20400;-83
2023/01/29 12:06:04;;;;;;;7.95;5.43;;;4.30;63.20;;;;;;5054543;28;20902;-83
2023/01/29 12:08:36;;;;;;;5.95;5.35;;;4.00;66.20;;;;;;5054011;28;20758;-84
2023/01/29 12:11:14;;;;;;;5.22;4.72;;;4.10;65.80;;;;;;5055472;28;20389;-84
2023/01/29 12:13:44;;;;;;;5.50;5.00;;;4.60;63.60;;;;;;5053473;28;20473;-84
2023/01/29 12:16:33;;;;;;;5.87;4.30;;;4.50;64.90;;;;;;5056554;28;20531;-84
2023/01/29 12:19:11;;;;;;;5.07;4.57;;;4.50;63.50;;;;;;5052018;28;20401;-81
2023/01/29 12:21:48;;;;;;;4.90;4.40;;;4.20;62.60;;;;;;5055935;28;20381;-82
2023/01/29 12:24:32;;;;;;;5.63;4.30;;;4.70;64.50;;;;;;5056237;28;20813;-83
2023/01/29 12:27:06;;;;;;;5.70;4.87;;;5.20;62.40;;;;;;5054264;28;20854;-83
2023/01/29 12:29:47;;;;;;;6.60;4.83;;;5.20;59.90;;;;;;5053849;28;20390;-83
2023/01/29 12:32:34;;;;;;;5.05;4.53;;;5.00;57.10;;;;;;5056531;28;20385;-82
2023/01/29 12:35:21;;;;;;;6.20;5.10;;;5.00;56.80;;;;;;5055335;28;20387;-83
2023/01/29 12:37:59;;;;;;;5.20;4.70;;;5.00;57.30;;;;;;5054921;28;20822;-82
2023/01/29 12:40:33;;;;;;;6.25;5.18;;;4.50;58.00;;;;;;5055315;28;20372;-82
2023/01/29 12:43:05;;;;;;;5.38;4.88;;;5.10;59.70;;;;;;5055042;28;20389;-82
2023/01/29 12:45:32;;;;;;;5.20;4.60;;;5.20;57.80;;;;;;5053789;28;20740;-83
2023/01/29 12:48:05;;;;;;;5.20;4.50;;;5.80;56.40;;;;;;5054895;28;20411;-83
2023/01/29 12:50:35;;;;;;;5.65;4.80;;;6.10;51.90;;;;;;5054918;28;20967;-83
2023/01/29 12:53:04;;;;;;;6.05;5.03;;;6.10;53.50;;;;;;5054084;28;20413;-82
2023/01/29 12:55:39;;;;;;;6.25;4.80;;;5.10;53.80;;;;;;5054084;28;20461;-82
2023/01/29 12:58:12;;;;;;;5.20;4.70;;;5.50;55.50;;;;;;5058184;28;20394;-82
2023/01/29 13:00:42;;;;;;;5.15;4.65;;;5.50;55.10;;;;;;5068417;28;20381;-81
2023/01/29 13:03:43;;;;;;;5.63;5.03;;;5.40;56.10;;;;;;5069926;28;20385;-82
2023/01/29 13:06:14;;;;;;;5.22;4.72;;;4.90;52.20;;;;;;5065066;28;20402;-82
2023/01/29 13:08:50;;;;;;;5.32;4.82;;;5.30;53.60;;;;;;5056526;28;20400;-82
2023/01/29 13:11:24;;;;;;;5.10;4.60;;;4.90;54.60;;;;;;5057042;28;20388;-82
2023/01/29 13:13:55;;;;;;;6.82;5.07;;;5.00;55.20;;;;;;5054945;28;20420;-82
2023/01/29 13:16:26;;;;;;;5.15;4.65;;;4.70;57.00;;;;;;5055043;28;20442;-82
2023/01/29 13:18:59;;;;;;;6.22;5.63;;;4.70;57.90;;;;;;5054358;28;20382;-82
2023/01/29 13:21:30;;;;;;;5.20;4.70;;;4.90;59.00;;;;;;5055724;28;20472;-81
2023/01/29 13:24:01;;;;;;;6.55;4.60;;;4.90;57.20;;;;;;5053513;28;20932;-81
2023/01/29 13:26:27;;;;;;;6.57;5.30;;;4.50;58.10;;;;;;5054512;28;20444;-80
2023/01/29 13:28:53;;;;;;;6.15;5.20;;;4.30;61.70;;;;;;5053609;28;20997;-81
2023/01/29 13:31:28;;;;;;;6.22;5.20;;;4.30;60.30;;;;;;5052248;28;20883;-81
2023/01/29 13:34:13;;;;;;;5.80;5.20;;;4.20;64.10;;;;;;5054634;28;20393;-82